Time;durP1;ratioP1;P1;durP2;ratioP2;P2;SDS_P1;SDS_P2;PMS_P1;PMS_P2;Temp;Humidity;BMP_temperature;BMP_pressure;BME280_temperature;BME280_humidity;BME280_pressure;Samples;Min_cycle;Max_cycle;Signal;HPM_P1;HPM_P2
2022/06/23 00:01:21;;;;;;;116.93;61.53;;;15.70;99.90;;;;;;4990850;28;20408;-89
2022/06/23 00:03:50;;;;;;;104.72;60.17;;;15.70;99.90;;;;;;4990765;28;20058;-90
2022/06/23 00:06:40;;;;;;;107.20;59.80;;;15.80;99.90;;;;;;4990991;28;20033;-89
2022/06/23 00:09:33;;;;;;;108.63;55.38;;;15.70;99.90;;;;;;4990614;28;20084;-89
2022/06/23 00:12:01;;;;;;;91.45;53.83;;;15.60;99.90;;;;;;4990354;28;20096;-90
2022/06/23 00:14:27;;;;;;;103.03;57.72;;;15.50;99.90;;;;;;4990574;28;20100;-89
2022/06/23 00:17:34;;;;;;;116.40;61.05;;;15.50;99.90;;;;;;4990401;28;20038;-90
2022/06/23 00:20:09;;;;;;;119.63;60.70;;;15.50;99.90;;;;;;4990355;28;20069;-91
2022/06/23 00:22:38;;;;;;;119.07;65.15;;;15.50;99.90;;;;;;4989734;28;20022;-90
2022/06/23 00:25:33;;;;;;;127.18;66.10;;;15.50;99.90;;;;;;4990229;28;20026;-90
2022/06/23 00:28:21;;;;;;;106.07;56.65;;;15.50;99.90;;;;;;4990965;28;20026;-89
2022/06/23 00:31:07;;;;;;;116.07;59.63;;;15.50;99.90;;;;;;4974650;28;20030;-90
2022/06/23 00:33:41;;;;;;;105.40;58.00;;;15.50;99.90;;;;;;4990200;28;20089;-89
2022/06/23 00:36:40;;;;;;;125.20;62.75;;;15.40;99.90;;;;;;4990410;28;20045;-89
2022/06/23 00:39:32;;;;;;;120.95;62.65;;;15.30;99.90;;;;;;4990654;28;20034;-89
2022/06/23 00:41:59;;;;;;;103.97;54.38;;;15.20;99.90;;;;;;4990874;28;20066;-90
2022/06/23 00:44:44;;;;;;;106.10;57.97;;;15.10;99.90;;;;;;4990297;28;20030;-89
2022/06/23 00:47:27;;;;;;;109.32;57.15;;;15.10;99.90;;;;;;4990833;28;20026;-90
2022/06/23 00:50:10;;;;;;;107.15;57.15;;;15.00;99.90;;;;;;4974534;28;20045;-89
2022/06/23 00:52:54;;;;;;;102.25;54.75;;;15.00;99.90;;;;;;4990593;28;20107;-90
2022/06/23 00:55:54;;;;;;;109.60;54.85;;;15.00;99.90;;;;;;4990254;28;20069;-90
2022/06/23 00:58:51;;;;;;;101.95;53.75;;;15.00;99.90;;;;;;4990526;28;20461;-89
2022/06/23 01:01:36;;;;;;;104.30;56.20;;;14.90;99.90;;;;;;4990707;28;20040;-89
2022/06/23 01:04:27;;;;;;;105.80;55.15;;;14.80;99.90;;;;;;4990462;28;20042;-89
2022/06/23 01:07:21;;;;;;;117.90;58.53;;;14.80;99.90;;;;;;4990725;28;20026;-90
2022/06/23 01:10:35;;;;;;;116.32;59.80;;;14.70;99.90;;;;;;4990288;28;20053;-90
2022/06/23 01:13:29;;;;;;;118.80;57.95;;;14.60;99.90;;;;;;4899531;29;20114;-90
2022/06/23 01:19:09;;;;;;;131.02;65.65;;;14.60;99.90;;;;;;5009441;28;20537;-90
2022/06/23 01:21:42;;;;;;;163.38;73.97;;;14.60;99.90;;;;;;5009927;28;20134;-89
2022/06/23 01:24:37;;;;;;;159.48;73.88;;;14.70;99.90;;;;;;5009789;28;20094;-90
2022/06/23 01:27:25;;;;;;;162.18;75.50;;;14.80;99.90;;;;;;5029536;28;20065;-89
2022/06/23 01:30:02;;;;;;;173.43;78.50;;;14.80;99.90;;;;;;5029933;28;20040;-89
2022/06/23 01:33:17;;;;;;;196.60;82.70;;;14.90;99.90;;;;;;5030240;28;20052;-89
2022/06/23 01:36:15;;;;;;;195.27;81.88;;;14.90;99.90;;;;;;4962954;28;20117;-90
2022/06/23 01:39:14;;;;;;;211.77;86.07;;;14.90;99.90;;;;;;5030159;28;20062;-89
2022/06/23 01:41:59;;;;;;;207.88;85.82;;;14.90;99.90;;;;;;5030174;28;20029;-89
2022/06/23 01:44:56;;;;;;;216.68;85.05;;;14.90;99.90;;;;;;5029357;28;20946;-90
2022/06/23 01:47:35;;;;;;;204.38;85.03;;;14.90;99.90;;;;;;5029249;28;20022;-89
2022/06/23 01:50:13;;;;;;;187.60;80.85;;;15.00;99.90;;;;;;5029029;28;20410;-89
2022/06/23 01:52:41;;;;;;;201.68;83.65;;;15.00;99.90;;;;;;5029334;28;20038;-89
2022/06/23 01:55:23;;;;;;;173.93;76.75;;;15.00;99.90;;;;;;5028914;28;20479;-89
2022/06/23 01:58:02;;;;;;;166.77;70.30;;;14.90;99.90;;;;;;5029344;28;20026;-89
2022/06/23 02:00:28;;;;;;;169.15;72.20;;;14.90;99.90;;;;;;5029070;28;20031;-90
2022/06/23 02:03:19;;;;;;;181.35;74.25;;;14.80;99.90;;;;;;5028565;28;20398;-89
2022/06/23 02:05:49;;;;;;;170.15;71.13;;;14.70;99.90;;;;;;5028667;28;20025;-89
2022/06/23 02:09:18;;;;;;;152.98;67.72;;;14.60;99.90;;;;;;5029299;28;20091;-90
2022/06/23 02:11:52;;;;;;;157.50;65.70;;;14.50;99.90;;;;;;5004383;28;20077;-90
2022/06/23 02:14:51;;;;;;;140.10;62.72;;;14.50;99.90;;;;;;5028484;28;20049;-90
2022/06/23 02:17:29;;;;;;;147.85;63.58;;;14.40;99.90;;;;;;5029049;28;20477;-89
2022/06/23 02:20:36;;;;;;;161.00;70.75;;;14.40;99.90;;;;;;5029255;28;20049;-89
2022/06/23 02:23:16;;;;;;;156.18;67.05;;;14.40;99.90;;;;;;5029342;28;20034;-90
2022/06/23 02:26:00;;;;;;;143.50;63.85;;;14.60;99.90;;;;;;5029570;28;20125;-89
2022/06/23 02:28:38;;;;;;;128.15;60.85;;;14.50;99.90;;;;;;5029596;28;20038;-89
2022/06/23 02:31:16;;;;;;;132.70;59.00;;;14.50;99.90;;;;;;5029495;28;20034;-89
2022/06/23 02:33:50;;;;;;;116.68;55.67;;;14.50;99.90;;;;;;5012688;28;20030;-89
2022/06/23 02:36:34;;;;;;;122.05;56.85;;;14.50;99.90;;;;;;5028999;28;20650;-89
2022/06/23 02:39:12;;;;;;;136.60;60.05;;;14.50;99.90;;;;;;5028537;28;20124;-89
2022/06/23 02:42:01;;;;;;;123.72;58.65;;;14.70;99.90;;;;;;5029041;28;20062;-90
2022/06/23 02:44:54;;;;;;;131.27;60.83;;;14.90;99.90;;;;;;5028371;28;20045;-89
2022/06/23 02:47:34;;;;;;;126.35;58.88;;;15.00;99.90;;;;;;5012108;28;20080;-89
2022/06/23 02:50:12;;;;;;;121.60;59.38;;;15.00;99.90;;;;;;5028536;28;20030;-90
2022/06/23 02:53:06;;;;;;;115.15;54.17;;;15.10;99.90;;;;;;5028554;28;20051;-89
2022/06/23 02:55:50;;;;;;;114.40;53.45;;;15.20;99.90;;;;;;5027686;28;20129;-90
2022/06/23 02:58:45;;;;;;;122.75;58.40;;;15.30;99.90;;;;;;5028177;28;20475;-89
2022/06/23 03:01:28;;;;;;;119.10;55.60;;;15.40;99.90;;;;;;5028426;28;20119;-89
2022/06/23 03:04:18;;;;;;;104.07;50.10;;;15.50;99.90;;;;;;5027487;28;20125;-89
2022/06/23 03:06:59;;;;;;;102.10;51.03;;;15.50;99.90;;;;;;5028087;28;20045;-90
2022/06/23 03:09:59;;;;;;;112.70;54.30;;;15.60;99.90;;;;;;5028792;28;20041;-89
2022/06/23 03:12:52;;;;;;;119.03;57.28;;;15.70;99.90;;;;;;5027807;28;20570;-89
2022/06/23 03:15:44;;;;;;;;;;;;;;;;;;;;;
2022/06/23 03:18:25;;;;;;;113.75;54.22;;;15.70;99.90;;;;;;5011303;28;20459;-90
2022/06/23 03:20:59;;;;;;;120.72;55.40;;;15.70;99.90;;;;;;5008990;28;20522;-89
2022/06/23 03:24:18;;;;;;;134.93;60.72;;;15.80;99.90;;;;;;5017350;28;20100;-89
2022/06/23 03:26:55;;;;;;;165.18;69.60;;;15.80;99.90;;;;;;4925359;28;20044;-90
2022/06/23 03:29:26;;;;;;;160.13;71.18;;;16.00;99.90;;;;;;5027411;28;20030;-89
2022/06/23 03:32:13;;;;;;;156.13;68.55;;;16.20;99.90;;;;;;5027631;28;20030;-90
2022/06/23 03:35:02;;;;;;;149.90;63.75;;;16.20;99.90;;;;;;5027378;28;20410;-90
2022/06/23 03:37:34;;;;;;;168.60;73.15;;;16.10;99.90;;;;;;5028054;28;20037;-89
2022/06/23 03:43:36;;;;;;;157.68;70.85;;;16.10;99.90;;;;;;5027334;28;20248;-89
2022/06/23 03:48:41;;;;;;;187.38;78.93;;;15.90;99.90;;;;;;5007952;28;20052;-90
2022/06/23 03:51:15;;;;;;;174.25;78.05;;;15.90;99.90;;;;;;5026579;28;20512;-89
2022/06/23 03:54:03;;;;;;;192.63;81.57;;;15.90;99.90;;;;;;5010390;28;20030;-90
2022/06/23 03:56:44;;;;;;;171.50;72.60;;;16.00;99.90;;;;;;5009923;28;20061;-90
2022/06/23 03:59:17;;;;;;;204.63;83.15;;;16.00;99.90;;;;;;5027259;28;20046;-90
2022/06/23 04:02:03;;;;;;;195.35;83.97;;;16.00;99.90;;;;;;5010984;28;20088;-90
2022/06/23 04:05:09;;;;;;;209.00;88.40;;;16.00;99.90;;;;;;5027106;28;20052;-89
2022/06/23 04:07:54;;;;;;;212.15;85.78;;;16.10;99.90;;;;;;4998295;28;20049;-89
2022/06/23 04:10:27;;;;;;;217.07;91.78;;;16.10;99.90;;;;;;5026922;28;20030;-89
2022/06/23 04:12:57;;;;;;;210.02;87.93;;;16.10;99.90;;;;;;5007454;28;20037;-90
2022/06/23 04:15:36;;;;;;;208.32;89.60;;;16.10;99.90;;;;;;4976278;28;20100;-90
2022/06/23 04:18:06;;;;;;;203.73;87.15;;;16.20;99.90;;;;;;4974677;28;20112;-90
2022/06/23 04:20:44;;;;;;;181.45;80.88;;;16.20;99.90;;;;;;4974022;28;20034;-91
2022/06/23 04:23:24;;;;;;;204.27;84.43;;;16.20;99.90;;;;;;4973946;28;20137;-88
2022/06/23 04:26:04;;;;;;;221.15;91.78;;;16.30;99.90;;;;;;4974564;28;20034;-89
2022/06/23 04:28:42;;;;;;;212.18;89.68;;;16.40;99.90;;;;;;4975135;28;20125;-90
2022/06/23 04:31:18;;;;;;;197.20;85.10;;;16.40;99.90;;;;;;4974524;28;20533;-89
2022/06/23 04:33:46;;;;;;;195.18;86.05;;;16.50;99.90;;;;;;4990035;28;20026;-89
2022/06/23 04:36:42;;;;;;;187.52;86.57;;;16.50;99.90;;;;;;4974386;28;20165;-89
2022/06/23 04:39:32;;;;;;;204.15;87.95;;;16.60;99.90;;;;;;4974509;28;20026;-89
2022/06/23 04:42:10;;;;;;;215.10;90.47;;;16.70;99.90;;;;;;4975369;28;20091;-90
2022/06/23 04:44:55;;;;;;;213.68;91.57;;;16.70;99.90;;;;;;4974454;28;20026;-91
2022/06/23 04:47:24;;;;;;;204.10;87.63;;;16.80;99.90;;;;;;4974864;28;20045;-91
2022/06/23 04:50:12;;;;;;;205.32;89.20;;;16.80;99.90;;;;;;4975009;28;20062;-90
2022/06/23 04:52:46;;;;;;;195.75;85.78;;;16.90;99.90;;;;;;4990938;28;20030;-90
2022/06/23 04:55:22;;;;;;;185.48;85.80;;;17.00;99.90;;;;;;4974770;28;20034;-90
2022/06/23 04:57:53;;;;;;;185.68;85.45;;;17.10;99.90;;;;;;4974634;28;20027;-90
2022/06/23 05:00:44;;;;;;;191.82;87.13;;;17.20;99.90;;;;;;4995221;28;20050;-90
2022/06/23 05:03:18;;;;;;;158.75;77.25;;;17.40;99.90;;;;;;4978659;28;20039;-88
2022/06/23 05:05:54;;;;;;;148.02;75.90;;;17.60;99.90;;;;;;4979145;28;20146;-90
2022/06/23 05:08:27;;;;;;;148.57;71.70;;;17.70;99.90;;;;;;4979062;28;20034;-90
2022/06/23 05:11:10;;;;;;;141.10;70.72;;;17.60;99.90;;;;;;4979471;28;20038;-90
2022/06/23 05:13:50;;;;;;;124.82;68.30;;;17.60;99.90;;;;;;4995754;28;20042;-90
2022/06/23 05:16:40;;;;;;;133.20;66.30;;;17.40;99.90;;;;;;4979499;28;20039;-90
2022/06/23 05:19:20;;;;;;;130.70;63.92;;;17.40;99.90;;;;;;4979870;28;20376;-89
2022/06/23 05:21:50;;;;;;;147.77;62.33;;;17.40;99.90;;;;;;4978747;28;20037;-90
2022/06/23 05:24:18;;;;;;;118.07;59.08;;;17.50;99.90;;;;;;4978320;28;20030;-90
2022/06/23 05:27:00;;;;;;;97.88;53.15;;;17.80;99.90;;;;;;4978196;28;20048;-90
2022/06/23 05:29:34;;;;;;;88.18;49.58;;;18.10;99.90;;;;;;4994919;28;20038;-90
2022/06/23 05:32:14;;;;;;;77.80;47.20;;;18.30;99.90;;;;;;4979138;28;20447;-90
2022/06/23 05:34:50;;;;;;;76.60;46.83;;;18.20;99.90;;;;;;4977853;28;20034;-91
2022/06/23 05:37:44;;;;;;;74.32;42.65;;;18.30;99.90;;;;;;4994560;28;20030;-90
2022/06/23 05:40:28;;;;;;;72.55;41.55;;;18.20;99.90;;;;;;5010960;28;20034;-89
2022/06/23 05:42:58;;;;;;;77.25;44.65;;;18.20;99.90;;;;;;4977883;28;20030;-89
2022/06/23 05:45:29;;;;;;;76.15;44.80;;;18.30;99.90;;;;;;4977817;28;20023;-89
2022/06/23 05:48:10;;;;;;;77.70;44.63;;;18.40;99.90;;;;;;4993602;28;20382;-90
2022/06/23 05:50:49;;;;;;;74.43;44.47;;;18.50;99.90;;;;;;4979854;28;20034;-89
2022/06/23 05:53:24;;;;;;;74.85;39.70;;;18.60;99.90;;;;;;5023874;28;20025;-90
2022/06/23 05:56:23;;;;;;;67.85;39.30;;;18.90;99.90;;;;;;4994649;28;20029;-90
2022/06/23 05:59:14;;;;;;;75.65;42.03;;;18.70;99.90;;;;;;5010510;28;20033;-89
2022/06/23 06:01:50;;;;;;;72.07;41.00;;;19.00;99.90;;;;;;5023027;28;20049;-89
2022/06/23 06:04:37;;;;;;;63.42;38.30;;;19.10;99.90;;;;;;5022745;28;20030;-89
2022/06/23 06:07:03;;;;;;;64.82;37.42;;;19.00;99.90;;;;;;5023733;28;20121;-88
2022/06/23 06:09:44;;;;;;;60.55;36.30;;;19.10;99.90;;;;;;5029462;28;20192;-90
2022/06/23 06:12:21;;;;;;;58.50;34.67;;;19.40;99.90;;;;;;5011660;28;20034;-90
2022/06/23 06:14:57;;;;;;;55.90;33.30;;;19.60;99.90;;;;;;4994506;28;20033;-89
2022/06/23 06:17:26;;;;;;;52.80;31.35;;;19.80;99.90;;;;;;4989644;28;20034;-89
2022/06/23 06:19:54;;;;;;;51.20;30.30;;;20.30;99.90;;;;;;5008513;28;20052;-89
2022/06/23 06:22:54;;;;;;;52.17;29.10;;;20.50;99.90;;;;;;5011469;28;20041;-88
2022/06/23 06:25:35;;;;;;;44.28;29.70;;;20.80;99.90;;;;;;4992603;28;20119;-89
2022/06/23 06:28:20;;;;;;;47.63;30.10;;;20.60;99.90;;;;;;5025824;28;20023;-89
2022/06/23 06:31:26;;;;;;;44.72;28.70;;;20.30;99.90;;;;;;5004512;28;20506;-91
2022/06/23 06:33:54;;;;;;;49.70;30.52;;;20.20;99.90;;;;;;5005455;28;20033;-89
2022/06/23 06:36:27;;;;;;;45.75;30.67;;;20.40;99.90;;;;;;5011703;28;20840;-89
2022/06/23 06:38:57;;;;;;;51.97;30.65;;;20.20;99.90;;;;;;5025901;28;20015;-89
2022/06/23 06:41:23;;;;;;;46.77;31.10;;;20.20;99.90;;;;;;5025442;28;20030;-89
2022/06/23 06:43:49;;;;;;;52.05;32.03;;;20.40;99.90;;;;;;5010925;28;20633;-90
2022/06/23 06:46:14;;;;;;;46.15;28.13;;;20.60;99.90;;;;;;5009376;28;20034;-90
2022/06/23 06:48:43;;;;;;;46.80;29.58;;;20.50;99.90;;;;;;5007828;28;20037;-89
2022/06/23 06:51:17;;;;;;;50.15;27.00;;;20.40;99.90;;;;;;5004199;28;20041;-89
2022/06/23 06:53:48;;;;;;;43.45;28.35;;;20.30;99.90;;;;;;4991673;28;20038;-89
2022/06/23 06:56:31;;;;;;;46.90;28.25;;;20.50;99.90;;;;;;5026519;28;20034;-86
2022/06/23 06:59:05;;;;;;;41.72;27.35;;;20.70;99.90;;;;;;5033001;28;20044;-88
2022/06/23 07:01:38;;;;;;;36.10;26.13;;;20.70;99.90;;;;;;5013668;28;20029;-88
2022/06/23 07:04:04;;;;;;;44.38;28.42;;;20.90;99.90;;;;;;5017909;28;20041;-86
2022/06/23 07:06:44;;;;;;;44.55;26.17;;;21.20;99.90;;;;;;5028575;28;20030;-88
2022/06/23 07:09:26;;;;;;;45.38;29.08;;;21.30;99.90;;;;;;5012528;28;20124;-88
2022/06/23 07:11:53;;;;;;;50.88;29.17;;;21.60;99.90;;;;;;5035743;28;20387;-89
2022/06/23 07:14:49;;;;;;;45.10;29.08;;;21.60;99.90;;;;;;5030322;28;20048;-87
2022/06/23 07:17:37;;;;;;;54.97;32.13;;;21.40;99.90;;;;;;5030190;28;20071;-87
2022/06/23 07:20:13;;;;;;;50.50;29.60;;;20.90;99.90;;;;;;5046045;28;20068;-88
2022/06/23 07:23:01;;;;;;;46.47;29.45;;;20.90;99.90;;;;;;5013444;28;20025;-93
2022/06/23 07:25:34;;;;;;;48.30;29.35;;;20.50;99.90;;;;;;5004746;28;20035;-88
2022/06/23 07:28:06;;;;;;;47.72;28.25;;;20.60;99.90;;;;;;5007049;28;20038;-87
2022/06/23 07:30:47;;;;;;;49.08;28.75;;;21.40;99.90;;;;;;4974975;28;20117;-87
2022/06/23 07:33:40;;;;;;;54.13;28.77;;;21.90;99.90;;;;;;5007513;28;20546;-87
2022/06/23 07:36:17;;;;;;;36.95;24.92;;;21.90;99.90;;;;;;5007137;28;20117;-88
2022/06/23 07:38:53;;;;;;;39.80;24.83;;;22.10;99.90;;;;;;4991254;28;20450;-88
2022/06/23 07:41:40;;;;;;;33.28;22.52;;;22.20;99.90;;;;;;5013207;28;20053;-88
2022/06/23 07:44:22;;;;;;;39.55;25.80;;;22.60;99.90;;;;;;5010096;28;20109;-87
2022/06/23 07:46:48;;;;;;;34.50;20.52;;;22.70;99.90;;;;;;5004690;28;20022;-86
2022/06/23 07:49:17;;;;;;;37.88;20.77;;;23.10;99.90;;;;;;5010192;28;20065;-87
2022/06/23 07:51:44;;;;;;;40.30;22.70;;;23.20;99.90;;;;;;5009555;28;20471;-87
2022/06/23 07:54:16;;;;;;;32.85;22.50;;;23.00;99.90;;;;;;4993347;28;20033;-88
2022/06/23 07:56:42;;;;;;;33.35;20.30;;;22.40;99.90;;;;;;5026320;28;20112;-87
2022/06/23 07:59:17;;;;;;;30.30;20.20;;;21.70;99.90;;;;;;4993172;28;20105;-86
2022/06/23 08:01:58;;;;;;;34.78;17.73;;;22.00;99.90;;;;;;5010436;28;20029;-87
2022/06/23 08:04:37;;;;;;;24.13;14.23;;;23.60;99.90;;;;;;5010751;28;20498;-88
2022/06/23 08:07:05;;;;;;;24.60;14.10;;;25.00;99.90;;;;;;5001525;28;20041;-86
2022/06/23 08:09:53;;;;;;;23.05;13.35;;;25.40;99.90;;;;;;5011137;28;20042;-87
2022/06/23 08:18:26;;;;;;;19.75;11.32;;;27.10;99.90;;;;;;4991232;28;20050;-87
2022/06/23 08:21:00;;;;;;;26.95;10.60;;;27.90;99.90;;;;;;4989197;28;20076;-87
2022/06/23 08:23:30;;;;;;;22.25;13.30;;;27.70;99.90;;;;;;4991199;28;20038;-87
2022/06/23 08:25:56;;;;;;;26.27;11.52;;;27.80;99.90;;;;;;4989302;28;20076;-87
2022/06/23 08:28:22;;;;;;;20.80;11.68;;;28.20;99.90;;;;;;4989044;28;20038;-85
2022/06/23 08:30:48;;;;;;;26.00;11.23;;;28.00;99.90;;;;;;4989741;28;20049;-86
2022/06/23 08:33:16;;;;;;;19.92;12.82;;;27.80;99.90;;;;;;4989443;28;20041;-87
2022/06/23 08:35:49;;;;;;;21.30;12.10;;;27.90;99.90;;;;;;4991299;28;20042;-88
2022/06/23 08:38:31;;;;;;;25.80;11.35;;;28.30;99.90;;;;;;5010868;28;20073;-86
2022/06/23 08:41:16;;;;;;;20.92;12.25;;;27.90;99.90;;;;;;4994080;28;20064;-87
2022/06/23 08:43:49;;;;;;;23.48;12.07;;;28.80;99.90;;;;;;5010337;28;20026;-86
2022/06/23 08:46:30;;;;;;;26.10;13.55;;;29.10;99.90;;;;;;5010256;28;20457;-88
2022/06/23 08:49:00;;;;;;;32.85;13.45;;;28.20;99.90;;;;;;4994693;28;20065;-86
2022/06/23 08:51:35;;;;;;;23.80;13.07;;;28.00;99.90;;;;;;5010480;28;20108;-87
2022/06/23 08:54:24;;;;;;;23.45;13.27;;;28.40;99.90;;;;;;5011226;28;20129;-86
2022/06/23 08:57:27;;;;;;;22.67;11.55;;;28.60;99.90;;;;;;4994536;28;20070;-87
2022/06/23 09:00:17;;;;;;;21.58;12.93;;;29.60;99.90;;;;;;5011010;28;20490;-86
2022/06/23 09:02:57;;;;;;;33.00;13.82;;;29.00;99.90;;;;;;4991852;28;20034;-86
2022/06/23 09:05:47;;;;;;;28.73;13.93;;;28.80;99.90;;;;;;5001414;28;20022;-86
2022/06/23 09:09:07;;;;;;;28.02;14.02;;;28.40;99.90;;;;;;5010189;28;20088;-87
2022/06/23 09:11:55;;;;;;;24.00;13.10;;;28.70;99.90;;;;;;4927138;29;20392;-86
2022/06/23 09:14:59;;;;;;;27.77;11.63;;;29.00;99.90;;;;;;4929499;29;20039;-87
2022/06/23 09:17:40;;;;;;;21.95;12.10;;;29.20;99.90;;;;;;4993334;28;20061;-86
2022/06/23 09:20:08;;;;;;;25.20;12.68;;;28.90;99.90;;;;;;5024138;28;20080;-86
2022/06/23 09:23:11;;;;;;;28.15;11.93;;;28.70;99.90;;;;;;5019040;28;20031;-87
2022/06/23 09:25:58;;;;;;;20.45;11.45;;;28.10;99.90;;;;;;5005881;28;20025;-87
2022/06/23 09:28:42;;;;;;;20.05;11.20;;;28.40;99.90;;;;;;5034345;28;20095;-86
2022/06/23 09:31:20;;;;;;;22.75;11.13;;;28.40;99.90;;;;;;5010011;28;20030;-87
2022/06/23 09:34:12;;;;;;;20.30;10.07;;;29.50;99.90;;;;;;5005180;28;20121;-86
2022/06/23 09:36:55;;;;;;;23.08;9.38;;;29.50;99.90;;;;;;5022022;28;20061;-88
2022/06/23 09:39:39;;;;;;;27.27;9.75;;;30.30;99.90;;;;;;5003810;28;20403;-86
2022/06/23 09:42:32;;;;;;;17.70;8.60;;;29.90;99.90;;;;;;5009996;28;20479;-87
2022/06/23 09:45:23;;;;;;;27.92;9.00;;;28.80;99.90;;;;;;5027626;28;20038;-87
2022/06/23 09:48:01;;;;;;;16.75;7.25;;;29.50;99.90;;;;;;5028677;28;20045;-87
2022/06/23 09:51:04;;;;;;;24.73;8.90;;;30.80;99.90;;;;;;5029105;28;20033;-87
2022/06/23 09:53:43;;;;;;;18.50;7.82;;;30.90;99.90;;;;;;5008418;28;20026;-87
2022/06/23 09:56:29;;;;;;;22.85;9.48;;;30.80;99.90;;;;;;5013031;28;20041;-86
2022/06/23 09:59:13;;;;;;;19.92;7.75;;;29.50;99.90;;;;;;5034460;28;20041;-86
2022/06/23 10:02:01;;;;;;;16.98;6.10;;;29.00;99.90;;;;;;5003461;28;20034;-86
2022/06/23 10:04:29;;;;;;;16.88;6.63;;;28.80;99.90;;;;;;5011694;28;20021;-87
2022/06/23 10:07:39;;;;;;;21.52;7.07;;;29.40;99.90;;;;;;4991939;28;20080;-86
2022/06/23 10:10:25;;;;;;;27.17;7.10;;;28.10;99.90;;;;;;5007932;28;20033;-86
2022/06/23 10:13:12;;;;;;;15.90;6.75;;;27.60;99.90;;;;;;5021095;28;20026;-87
2022/06/23 10:15:50;;;;;;;19.77;7.60;;;28.40;99.90;;;;;;5012888;28;20511;-87
2022/06/23 10:18:44;;;;;;;16.10;5.78;;;29.10;99.90;;;;;;5010723;28;20113;-86
2022/06/23 10:21:50;;;;;;;17.73;5.95;;;30.00;99.90;;;;;;5011884;28;20485;-84
2022/06/23 10:24:21;;;;;;;19.38;6.53;;;29.60;99.90;;;;;;5012108;28;20375;-85
2022/06/23 10:27:05;;;;;;;19.75;6.90;;;30.20;99.90;;;;;;5028093;28;20124;-84
2022/06/23 10:29:58;;;;;;;22.13;7.45;;;29.40;99.90;;;;;;5028725;28;20046;-85
2022/06/23 10:33:11;;;;;;;16.85;5.32;;;29.30;99.90;;;;;;5028121;28;20030;-85
2022/06/23 10:35:51;;;;;;;17.58;6.03;;;29.10;99.90;;;;;;4985347;28;20048;-85
2022/06/23 10:38:40;;;;;;;14.40;5.40;;;29.50;99.90;;;;;;5027506;28;20034;-85
2022/06/23 10:41:35;;;;;;;23.13;7.13;;;29.60;99.90;;;;;;5027427;28;20050;-85
2022/06/23 10:44:16;;;;;;;14.15;5.38;;;30.00;99.90;;;;;;5027645;28;20398;-85
2022/06/23 10:46:47;;;;;;;;;;;29.70;99.90;;;;;;5027174;28;20491;-85
2022/06/23 10:49:32;;;;;;;14.93;6.00;;;29.70;99.90;;;;;;4995208;28;20358;-85
2022/06/23 10:52:24;;;;;;;12.00;5.25;;;29.10;99.90;;;;;;5012717;28;20030;-85
2022/06/23 10:55:07;;;;;;;17.15;5.25;;;28.60;99.90;;;;;;5027838;28;20422;-85
2022/06/23 10:57:47;;;;;;;17.00;5.72;;;28.80;99.90;;;;;;5027673;28;20144;-85
2022/06/23 11:00:23;;;;;;;18.30;5.63;;;29.30;99.90;;;;;;5010797;28;20021;-85
2022/06/23 11:03:03;;;;;;;15.85;5.07;;;29.70;99.90;;;;;;5027944;28;20101;-84
2022/06/23 11:05:41;;;;;;;8.77;4.68;;;30.40;99.90;;;;;;5028767;28;20061;-85
2022/06/23 11:08:47;;;;;;;15.75;6.07;;;30.00;99.90;;;;;;5013681;28;20034;-84
2022/06/23 11:11:40;;;;;;;15.95;5.35;;;29.90;99.90;;;;;;4975253;28;20061;-86
2022/06/23 11:14:24;;;;;;;13.55;5.13;;;30.30;99.90;;;;;;5011684;28;20045;-85
2022/06/23 11:17:15;;;;;;;15.20;5.80;;;29.80;99.90;;;;;;5012806;28;20040;-85
2022/06/23 11:19:52;;;;;;;19.17;5.20;;;29.70;99.90;;;;;;5027514;28;20030;-84
2022/06/23 11:22:32;;;;;;;15.15;4.60;;;29.60;99.90;;;;;;5010622;28;20037;-85
2022/06/23 11:25:14;;;;;;;14.27;4.80;;;30.00;99.90;;;;;;5012108;28;20103;-85
2022/06/23 11:28:20;;;;;;;15.52;4.90;;;30.40;99.90;;;;;;5011245;28;20034;-86
2022/06/23 11:31:25;;;;;;;14.82;4.88;;;30.70;99.90;;;;;;5010513;28;20059;-85
2022/06/23 11:34:11;;;;;;;16.70;4.78;;;31.40;99.90;;;;;;5010664;28;20144;-85
2022/06/23 11:37:11;;;;;;;17.35;5.30;;;31.40;99.90;;;;;;5010704;28;20509;-85
2022/06/23 11:40:02;;;;;;;14.05;4.28;;;31.80;99.90;;;;;;5010530;28;20033;-85
2022/06/23 11:42:45;;;;;;;8.10;4.38;;;31.60;99.90;;;;;;5010592;28;20026;-84
2022/06/23 11:45:20;;;;;;;17.58;5.35;;;31.40;99.90;;;;;;5009972;28;20113;-85
2022/06/23 11:48:04;;;;;;;16.75;4.70;;;31.00;99.90;;;;;;5010271;28;20033;-85
2022/06/23 11:50:44;;;;;;;16.83;4.43;;;30.50;99.90;;;;;;5011867;28;20388;-85
2022/06/23 11:53:16;;;;;;;11.77;4.90;;;30.20;99.90;;;;;;5010435;28;20145;-84
2022/06/23 11:55:52;;;;;;;14.85;4.78;;;29.60;99.90;;;;;;5010387;28;20064;-84
2022/06/23 11:58:40;;;;;;;11.10;3.97;;;29.40;99.90;;;;;;5010732;28;20053;-85
2022/06/23 12:01:20;;;;;;;9.68;3.40;;;29.10;99.90;;;;;;5012022;28;20029;-85
2022/06/23 12:03:51;;;;;;;18.08;4.80;;;29.10;99.90;;;;;;5011022;28;20088;-85
2022/06/23 12:06:54;;;;;;;14.73;4.50;;;28.50;99.90;;;;;;5012407;28;20095;-85
2022/06/23 12:09:28;;;;;;;15.45;4.70;;;28.30;99.90;;;;;;5011476;28;20471;-85
2022/06/23 12:12:01;;;;;;;13.23;4.43;;;28.20;99.90;;;;;;5010194;28;20124;-85
2022/06/23 12:14:28;;;;;;;11.13;4.35;;;28.70;99.90;;;;;;5010082;28;20041;-85
2022/06/23 12:17:00;;;;;;;14.48;4.60;;;29.00;99.90;;;;;;5026927;28;20037;-85
2022/06/23 12:19:57;;;;;;;10.80;4.95;;;28.80;99.90;;;;;;5026923;28;20060;-85
2022/06/23 12:22:58;;;;;;;11.65;4.20;;;28.60;99.90;;;;;;5026011;28;20030;-85
2022/06/23 12:25:24;;;;;;;15.57;4.65;;;29.30;99.90;;;;;;5006977;28;20577;-85
2022/06/23 12:28:00;;;;;;;11.07;4.05;;;30.00;99.90;;;;;;5026863;28;20121;-85
2022/06/23 12:30:29;;;;;;;19.45;4.43;;;30.40;99.90;;;;;;5026475;28;20042;-84
2022/06/23 12:33:18;;;;;;;15.15;4.03;;;30.40;99.90;;;;;;5026018;28;20037;-87
2022/06/23 12:35:59;;;;;;;14.52;4.07;;;31.10;99.90;;;;;;5026810;28;20029;-85
2022/06/23 12:38:50;;;;;;;13.80;3.38;;;31.20;99.90;;;;;;5026209;28;20030;-84
2022/06/23 12:41:36;;;;;;;;;;;30.90;99.90;;;;;;5012368;28;20097;-85
2022/06/23 12:44:15;;;;;;;15.40;3.60;;;30.50;99.90;;;;;;5011040;28;19909;-86
2022/06/23 12:47:21;;;;;;;12.82;3.92;;;31.20;99.90;;;;;;5026218;28;20510;-85
2022/06/23 12:50:06;;;;;;;10.63;3.40;;;32.10;99.90;;;;;;5002861;28;20545;-85
2022/06/23 12:52:50;;;;;;;12.50;3.55;;;31.10;99.90;;;;;;5027150;28;20034;-85
2022/06/23 12:55:34;;;;;;;11.05;3.60;;;30.10;99.90;;;;;;5026679;28;20033;-85
2022/06/23 12:58:28;;;;;;;14.77;4.22;;;29.50;99.90;;;;;;5026324;28;20030;-85
2022/06/23 13:01:10;;;;;;;14.35;3.50;;;30.50;99.90;;;;;;5026151;28;20116;-85
2022/06/23 13:03:52;;;;;;;13.98;4.70;;;31.20;99.90;;;;;;5025789;28;20463;-86
2022/06/23 13:06:36;;;;;;;11.63;3.47;;;31.70;99.70;;;;;;4993851;28;20042;-86
2022/06/23 13:09:17;;;;;;;11.43;3.17;;;32.10;99.00;;;;;;5010328;28;20037;-88
2022/06/23 13:11:49;;;;;;;12.38;4.07;;;32.40;99.60;;;;;;5011234;28;20057;-85
2022/06/23 13:14:24;;;;;;;9.35;3.67;;;32.50;97.60;;;;;;5010232;28;20044;-86
2022/06/23 13:17:03;;;;;;;14.30;3.83;;;32.50;97.70;;;;;;5026113;28;20044;-87
2022/06/23 13:19:38;;;;;;;12.98;3.03;;;32.30;96.70;;;;;;5026358;28;20038;-85
2022/06/23 13:22:11;;;;;;;10.80;3.30;;;32.00;96.90;;;;;;5012901;28;20498;-85
2022/06/23 13:24:42;;;;;;;11.50;3.60;;;31.70;97.00;;;;;;5014525;28;20046;-86
2022/06/23 13:27:29;;;;;;;14.27;3.53;;;31.70;96.80;;;;;;5015653;28;20040;-85
2022/06/23 13:30:03;;;;;;;6.97;3.28;;;31.20;97.30;;;;;;5030389;28;20030;-85
2022/06/23 13:33:02;;;;;;;10.15;3.25;;;31.60;97.60;;;;;;5030273;28;20033;-84
2022/06/23 13:35:42;;;;;;;9.27;3.63;;;31.10;96.40;;;;;;5031097;28;20036;-85
2022/06/23 13:38:33;;;;;;;10.88;3.60;;;30.90;97.50;;;;;;5028911;28;20030;-85
2022/06/23 13:41:08;;;;;;;11.55;4.22;;;31.20;96.40;;;;;;5029724;28;20033;-85
2022/06/23 13:43:49;;;;;;;8.40;3.47;;;31.80;95.80;;;;;;5029558;28;20052;-86
2022/06/23 13:46:18;;;;;;;13.02;3.53;;;32.60;95.00;;;;;;5029363;28;20568;-85
2022/06/23 13:48:53;;;;;;;9.32;3.15;;;32.60;95.10;;;;;;5029475;28;20029;-84
2022/06/23 13:51:38;;;;;;;10.57;3.15;;;33.30;94.60;;;;;;5012314;28;20038;-87
2022/06/23 13:54:30;;;;;;;9.50;3.20;;;34.00;94.60;;;;;;5012137;28;20034;-85
2022/06/23 13:57:29;;;;;;;11.15;3.55;;;34.10;91.90;;;;;;5012836;28;20751;-86
2022/06/23 14:00:00;;;;;;;16.75;3.15;;;34.20;92.10;;;;;;5029266;28;20109;-85